Quillayute, Washington
Current Conditions -  °F | °C
As of 7:53 AM on Sunday 23 Nov 2014 (Local Time) from KUIL Reporting Station
Haze Haze  
Wind Chill: 45°   Ceiling: 7500
Heat Index: 49°   Visibility: 5mi
Dew Point: 46°   Wind: 10mph
Humidity: 90%   Direction: 250°WSW
Pressure: 30.06"   Gusts: NA
Location:  47.95°N, 124.55°W
Report Text: KUIL 231553Z AUTO 25009KT 5SM BR BKN075 OVC110 09/08 A3006 RMK AO2 RAE16B24E33 SLP181 P0001 T00940078
Loading
Personal Weather Stations






























Interactive Weather Map New forecast layout! Learn more

10-Day Weather Forecast

Advertisements
Track Severe Weather on mobile